sensor_id;sensor_type;location;lat;lon;timestamp;P1;durP1;ratioP1;P2;durP2;ratioP2
10701;SDS011;5402;50.004;8.246;2022-12-13T00:00:45;32.23;;;14.33;;
10701;SDS011;5402;50.004;8.246;2022-12-13T00:03:13;29.23;;;12.90;;
10701;SDS011;5402;50.004;8.246;2022-12-13T00:05:43;29.40;;;13.23;;
10701;SDS011;5402;50.004;8.246;2022-12-13T00:08:10;27.27;;;11.97;;
10701;SDS011;5402;50.004;8.246;2022-12-13T00:10:37;25.17;;;12.83;;
10701;SDS011;5402;50.004;8.246;2022-12-13T00:13:04;25.13;;;13.00;;
10701;SDS011;5402;50.004;8.246;2022-12-13T00:15:30;30.00;;;13.83;;
10701;SDS011;5402;50.004;8.246;2022-12-13T00:17:57;27.70;;;12.47;;
10701;SDS011;5402;50.004;8.246;2022-12-13T00:22:54;28.63;;;13.33;;
10701;SDS011;5402;50.004;8.246;2022-12-13T00:25:21;31.73;;;14.20;;
10701;SDS011;5402;50.004;8.246;2022-12-13T00:27:48;24.10;;;11.50;;
10701;SDS011;5402;50.004;8.246;2022-12-13T00:30:15;27.03;;;12.50;;
10701;SDS011;5402;50.004;8.246;2022-12-13T00:32:41;24.23;;;12.60;;
10701;SDS011;5402;50.004;8.246;2022-12-13T00:35:08;34.00;;;13.83;;
10701;SDS011;5402;50.004;8.246;2022-12-13T00:37:36;25.07;;;13.27;;
10701;SDS011;5402;50.004;8.246;2022-12-13T00:40:03;29.30;;;12.73;;
10701;SDS011;5402;50.004;8.246;2022-12-13T00:42:30;27.07;;;12.67;;
10701;SDS011;5402;50.004;8.246;2022-12-13T00:44:57;24.40;;;12.37;;
10701;SDS011;5402;50.004;8.246;2022-12-13T00:47:24;30.30;;;12.30;;
10701;SDS011;5402;50.004;8.246;2022-12-13T00:49:51;26.17;;;13.20;;
10701;SDS011;5402;50.004;8.246;2022-12-13T00:52:17;27.23;;;11.87;;
10701;SDS011;5402;50.004;8.246;2022-12-13T00:54:45;23.50;;;12.27;;
10701;SDS011;5402;50.004;8.246;2022-12-13T00:57:12;23.33;;;12.07;;
10701;SDS011;5402;50.004;8.246;2022-12-13T00:59:39;25.27;;;13.10;;
10701;SDS011;5402;50.004;8.246;2022-12-13T01:02:06;29.93;;;12.93;;
10701;SDS011;5402;50.004;8.246;2022-12-13T01:04:32;27.77;;;12.43;;
10701;SDS011;5402;50.004;8.246;2022-12-13T01:06:59;24.40;;;11.60;;
10701;SDS011;5402;50.004;8.246;2022-12-13T01:09:26;28.10;;;11.83;;
10701;SDS011;5402;50.004;8.246;2022-12-13T01:11:56;22.33;;;12.23;;
10701;SDS011;5402;50.004;8.246;2022-12-13T01:14:24;28.37;;;12.17;;
10701;SDS011;5402;50.004;8.246;2022-12-13T01:16:52;29.00;;;12.63;;
10701;SDS011;5402;50.004;8.246;2022-12-13T01:19:19;28.97;;;13.73;;
10701;SDS011;5402;50.004;8.246;2022-12-13T01:21:46;27.10;;;11.33;;
10701;SDS011;5402;50.004;8.246;2022-12-13T01:24:13;26.83;;;11.90;;
10701;SDS011;5402;50.004;8.246;2022-12-13T01:26:44;26.50;;;12.50;;
10701;SDS011;5402;50.004;8.246;2022-12-13T01:29:12;26.80;;;11.73;;
10701;SDS011;5402;50.004;8.246;2022-12-13T01:31:39;23.70;;;11.43;;
10701;SDS011;5402;50.004;8.246;2022-12-13T01:34:06;30.00;;;12.13;;
10701;SDS011;5402;50.004;8.246;2022-12-13T01:36:34;26.53;;;11.60;;
10701;SDS011;5402;50.004;8.246;2022-12-13T01:39:01;25.87;;;12.37;;
10701;SDS011;5402;50.004;8.246;2022-12-13T01:41:29;28.00;;;11.77;;
10701;SDS011;5402;50.004;8.246;2022-12-13T01:43:57;26.93;;;11.60;;
10701;SDS011;5402;50.004;8.246;2022-12-13T01:46:29;28.37;;;12.03;;
10701;SDS011;5402;50.004;8.246;2022-12-13T01:48:59;22.43;;;11.23;;
10701;SDS011;5402;50.004;8.246;2022-12-13T01:51:31;24.53;;;11.63;;
10701;SDS011;5402;50.004;8.246;2022-12-13T01:54:02;30.57;;;11.97;;
10701;SDS011;5402;50.004;8.246;2022-12-13T01:56:32;29.37;;;11.20;;
10701;SDS011;5402;50.004;8.246;2022-12-13T01:59:03;23.23;;;11.23;;
10701;SDS011;5402;50.004;8.246;2022-12-13T02:01:33;26.13;;;12.20;;
10701;SDS011;5402;50.004;8.246;2022-12-13T02:04:01;24.20;;;11.30;;
10701;SDS011;5402;50.004;8.246;2022-12-13T02:06:29;24.80;;;11.40;;
10701;SDS011;5402;50.004;8.246;2022-12-13T02:08:59;24.87;;;11.37;;
10701;SDS011;5402;50.004;8.246;2022-12-13T02:11:27;22.37;;;10.97;;
10701;SDS011;5402;50.004;8.246;2022-12-13T02:13:54;27.77;;;11.80;;
10701;SDS011;5402;50.004;8.246;2022-12-13T02:16:25;29.40;;;11.70;;
10701;SDS011;5402;50.004;8.246;2022-12-13T02:19:13;26.53;;;12.20;;
10701;SDS011;5402;50.004;8.246;2022-12-13T02:22:07;26.17;;;11.97;;
10701;SDS011;5402;50.004;8.246;2022-12-13T02:25:02;26.70;;;11.93;;
10701;SDS011;5402;50.004;8.246;2022-12-13T02:27:49;22.57;;;10.77;;
10701;SDS011;5402;50.004;8.246;2022-12-13T02:30:31;26.00;;;11.43;;
10701;SDS011;5402;50.004;8.246;2022-12-13T02:33:09;23.13;;;10.83;;
10701;SDS011;5402;50.004;8.246;2022-12-13T02:35:48;24.57;;;10.60;;
10701;SDS011;5402;50.004;8.246;2022-12-13T02:38:22;27.37;;;11.53;;
10701;SDS011;5402;50.004;8.246;2022-12-13T02:40:53;25.97;;;12.13;;
10701;SDS011;5402;50.004;8.246;2022-12-13T02:43:25;27.40;;;11.97;;
10701;SDS011;5402;50.004;8.246;2022-12-13T02:45:58;26.90;;;11.20;;
10701;SDS011;5402;50.004;8.246;2022-12-13T02:48:27;22.20;;;10.83;;
10701;SDS011;5402;50.004;8.246;2022-12-13T02:50:57;23.27;;;11.23;;
10701;SDS011;5402;50.004;8.246;2022-12-13T02:53:25;25.53;;;10.93;;
10701;SDS011;5402;50.004;8.246;2022-12-13T02:55:53;25.40;;;11.47;;
10701;SDS011;5402;50.004;8.246;2022-12-13T02:58:21;21.93;;;10.43;;
10701;SDS011;5402;50.004;8.246;2022-12-13T03:00:53;24.73;;;10.87;;
10701;SDS011;5402;50.004;8.246;2022-12-13T03:03:36;23.00;;;10.37;;
10701;SDS011;5402;50.004;8.246;2022-12-13T03:06:15;17.57;;;9.63;;
10701;SDS011;5402;50.004;8.246;2022-12-13T03:08:59;22.57;;;10.47;;
10701;SDS011;5402;50.004;8.246;2022-12-13T03:11:49;24.87;;;11.53;;
10701;SDS011;5402;50.004;8.246;2022-12-13T03:14:38;24.97;;;10.17;;
10701;SDS011;5402;50.004;8.246;2022-12-13T03:17:10;22.43;;;9.80;;
10701;SDS011;5402;50.004;8.246;2022-12-13T03:19:41;25.27;;;10.87;;
10701;SDS011;5402;50.004;8.246;2022-12-13T03:22:08;21.37;;;11.07;;
10701;SDS011;5402;50.004;8.246;2022-12-13T03:24:35;27.53;;;11.80;;
10701;SDS011;5402;50.004;8.246;2022-12-13T03:27:02;29.07;;;12.33;;
10701;SDS011;5402;50.004;8.246;2022-12-13T03:29:29;21.67;;;10.10;;
10701;SDS011;5402;50.004;8.246;2022-12-13T03:31:56;25.97;;;11.30;;
10701;SDS011;5402;50.004;8.246;2022-12-13T03:34:23;21.43;;;11.07;;
10701;SDS011;5402;50.004;8.246;2022-12-13T03:36:51;26.87;;;10.40;;
10701;SDS011;5402;50.004;8.246;2022-12-13T03:39:18;24.03;;;10.07;;
10701;SDS011;5402;50.004;8.246;2022-12-13T03:41:45;24.43;;;11.03;;
10701;SDS011;5402;50.004;8.246;2022-12-13T03:44:12;25.70;;;10.60;;
10701;SDS011;5402;50.004;8.246;2022-12-13T03:46:39;19.03;;;9.73;;
10701;SDS011;5402;50.004;8.246;2022-12-13T03:49:06;24.77;;;11.10;;
10701;SDS011;5402;50.004;8.246;2022-12-13T03:51:33;23.20;;;9.73;;
10701;SDS011;5402;50.004;8.246;2022-12-13T03:54:01;22.07;;;10.67;;
10701;SDS011;5402;50.004;8.246;2022-12-13T03:56:28;21.47;;;10.40;;
10701;SDS011;5402;50.004;8.246;2022-12-13T03:58:55;22.77;;;9.87;;
10701;SDS011;5402;50.004;8.246;2022-12-13T04:01:22;23.90;;;10.10;;
10701;SDS011;5402;50.004;8.246;2022-12-13T04:03:48;22.10;;;9.97;;
10701;SDS011;5402;50.004;8.246;2022-12-13T04:06:15;25.97;;;11.10;;
10701;SDS011;5402;50.004;8.246;2022-12-13T04:08:42;21.43;;;10.20;;
10701;SDS011;5402;50.004;8.246;2022-12-13T04:11:10;24.13;;;10.53;;
10701;SDS011;5402;50.004;8.246;2022-12-13T04:13:54;23.80;;;9.97;;
10701;SDS011;5402;50.004;8.246;2022-12-13T04:16:21;25.77;;;11.47;;
10701;SDS011;5402;50.004;8.246;2022-12-13T04:18:48;26.50;;;10.43;;
10701;SDS011;5402;50.004;8.246;2022-12-13T04:21:15;20.47;;;10.00;;
10701;SDS011;5402;50.004;8.246;2022-12-13T04:23:42;23.57;;;10.67;;
10701;SDS011;5402;50.004;8.246;2022-12-13T04:26:10;27.27;;;11.00;;
10701;SDS011;5402;50.004;8.246;2022-12-13T04:28:37;27.47;;;11.13;;
10701;SDS011;5402;50.004;8.246;2022-12-13T04:31:04;22.87;;;10.00;;
10701;SDS011;5402;50.004;8.246;2022-12-13T04:33:31;25.07;;;11.13;;
10701;SDS011;5402;50.004;8.246;2022-12-13T04:35:58;21.83;;;10.33;;
10701;SDS011;5402;50.004;8.246;2022-12-13T04:38:25;20.80;;;10.40;;
10701;SDS011;5402;50.004;8.246;2022-12-13T04:40:52;21.10;;;10.23;;
10701;SDS011;5402;50.004;8.246;2022-12-13T04:43:20;21.90;;;9.77;;
10701;SDS011;5402;50.004;8.246;2022-12-13T04:45:47;24.83;;;10.80;;
10701;SDS011;5402;50.004;8.246;2022-12-13T04:48:13;22.33;;;10.87;;
10701;SDS011;5402;50.004;8.246;2022-12-13T04:50:40;20.90;;;10.03;;
10701;SDS011;5402;50.004;8.246;2022-12-13T04:53:11;21.27;;;10.13;;
10701;SDS011;5402;50.004;8.246;2022-12-13T04:55:39;24.57;;;10.83;;
10701;SDS011;5402;50.004;8.246;2022-12-13T04:58:06;26.87;;;10.40;;
10701;SDS011;5402;50.004;8.246;2022-12-13T05:00:35;23.60;;;10.10;;
10701;SDS011;5402;50.004;8.246;2022-12-13T05:03:01;24.50;;;10.37;;
10701;SDS011;5402;50.004;8.246;2022-12-13T05:05:28;27.17;;;10.27;;
10701;SDS011;5402;50.004;8.246;2022-12-13T05:07:55;22.20;;;9.80;;
10701;SDS011;5402;50.004;8.246;2022-12-13T05:10:21;23.80;;;10.10;;
10701;SDS011;5402;50.004;8.246;2022-12-13T05:12:48;22.83;;;10.13;;
10701;SDS011;5402;50.004;8.246;2022-12-13T05:15:15;25.47;;;11.17;;
10701;SDS011;5402;50.004;8.246;2022-12-13T05:17:43;26.47;;;11.97;;
10701;SDS011;5402;50.004;8.246;2022-12-13T05:20:10;27.23;;;11.50;;
10701;SDS011;5402;50.004;8.246;2022-12-13T05:22:37;22.97;;;10.60;;
10701;SDS011;5402;50.004;8.246;2022-12-13T05:25:04;26.07;;;11.10;;
10701;SDS011;5402;50.004;8.246;2022-12-13T05:27:31;22.47;;;11.30;;
10701;SDS011;5402;50.004;8.246;2022-12-13T05:29:58;25.20;;;10.87;;
10701;SDS011;5402;50.004;8.246;2022-12-13T05:32:25;24.90;;;10.40;;
10701;SDS011;5402;50.004;8.246;2022-12-13T05:34:53;23.13;;;10.07;;
10701;SDS011;5402;50.004;8.246;2022-12-13T05:37:20;25.53;;;10.70;;
10701;SDS011;5402;50.004;8.246;2022-12-13T05:39:46;23.90;;;10.33;;
10701;SDS011;5402;50.004;8.246;2022-12-13T05:42:13;25.70;;;10.60;;
10701;SDS011;5402;50.004;8.246;2022-12-13T05:44:40;21.30;;;10.70;;
10701;SDS011;5402;50.004;8.246;2022-12-13T05:47:06;26.20;;;11.87;;
10701;SDS011;5402;50.004;8.246;2022-12-13T05:49:33;19.43;;;9.73;;
10701;SDS011;5402;50.004;8.246;2022-12-13T05:52:01;22.87;;;10.17;;
10701;SDS011;5402;50.004;8.246;2022-12-13T05:54:28;21.20;;;9.77;;
10701;SDS011;5402;50.004;8.246;2022-12-13T05:56:55;22.73;;;10.77;;
10701;SDS011;5402;50.004;8.246;2022-12-13T05:59:22;24.93;;;11.33;;
10701;SDS011;5402;50.004;8.246;2022-12-13T06:01:49;20.40;;;9.50;;
10701;SDS011;5402;50.004;8.246;2022-12-13T06:04:17;21.37;;;10.60;;
10701;SDS011;5402;50.004;8.246;2022-12-13T06:06:44;25.13;;;10.57;;
10701;SDS011;5402;50.004;8.246;2022-12-13T06:09:12;20.07;;;10.27;;
10701;SDS011;5402;50.004;8.246;2022-12-13T06:11:38;26.00;;;10.97;;
10701;SDS011;5402;50.004;8.246;2022-12-13T06:14:05;22.80;;;10.63;;
10701;SDS011;5402;50.004;8.246;2022-12-13T06:16:32;21.43;;;9.83;;
10701;SDS011;5402;50.004;8.246;2022-12-13T06:18:59;21.07;;;9.83;;
10701;SDS011;5402;50.004;8.246;2022-12-13T06:21:26;25.47;;;10.67;;
10701;SDS011;5402;50.004;8.246;2022-12-13T06:23:55;24.43;;;11.47;;
10701;SDS011;5402;50.004;8.246;2022-12-13T06:26:23;20.80;;;10.57;;
10701;SDS011;5402;50.004;8.246;2022-12-13T06:28:50;21.13;;;9.97;;
10701;SDS011;5402;50.004;8.246;2022-12-13T06:31:16;21.67;;;9.80;;
10701;SDS011;5402;50.004;8.246;2022-12-13T06:33:43;21.53;;;9.70;;
10701;SDS011;5402;50.004;8.246;2022-12-13T06:36:10;26.80;;;10.83;;
10701;SDS011;5402;50.004;8.246;2022-12-13T06:38:37;22.20;;;10.37;;
10701;SDS011;5402;50.004;8.246;2022-12-13T06:41:07;20.83;;;9.73;;
10701;SDS011;5402;50.004;8.246;2022-12-13T06:43:37;22.37;;;10.63;;
10701;SDS011;5402;50.004;8.246;2022-12-13T06:46:07;20.73;;;9.80;;
10701;SDS011;5402;50.004;8.246;2022-12-13T06:48:34;23.07;;;11.60;;
10701;SDS011;5402;50.004;8.246;2022-12-13T06:51:00;22.07;;;10.50;;
10701;SDS011;5402;50.004;8.246;2022-12-13T06:53:28;22.93;;;10.57;;
10701;SDS011;5402;50.004;8.246;2022-12-13T06:55:55;23.77;;;11.13;;
10701;SDS011;5402;50.004;8.246;2022-12-13T06:58:23;22.70;;;10.77;;
10701;SDS011;5402;50.004;8.246;2022-12-13T07:00:59;21.00;;;9.70;;
10701;SDS011;5402;50.004;8.246;2022-12-13T07:03:26;25.73;;;11.23;;
10701;SDS011;5402;50.004;8.246;2022-12-13T07:05:53;21.83;;;10.53;;
10701;SDS011;5402;50.004;8.246;2022-12-13T07:08:20;25.27;;;9.73;;
10701;SDS011;5402;50.004;8.246;2022-12-13T07:10:48;20.87;;;10.37;;
10701;SDS011;5402;50.004;8.246;2022-12-13T07:13:15;24.23;;;9.70;;
10701;SDS011;5402;50.004;8.246;2022-12-13T07:15:41;22.03;;;9.80;;
10701;SDS011;5402;50.004;8.246;2022-12-13T07:18:09;21.17;;;9.70;;
10701;SDS011;5402;50.004;8.246;2022-12-13T07:20:37;23.43;;;10.83;;
10701;SDS011;5402;50.004;8.246;2022-12-13T07:23:04;21.10;;;10.30;;
10701;SDS011;5402;50.004;8.246;2022-12-13T07:25:31;22.90;;;10.70;;
10701;SDS011;5402;50.004;8.246;2022-12-13T07:27:58;22.20;;;9.80;;
10701;SDS011;5402;50.004;8.246;2022-12-13T07:30:27;20.60;;;10.20;;
10701;SDS011;5402;50.004;8.246;2022-12-13T07:32:54;21.63;;;9.83;;
10701;SDS011;5402;50.004;8.246;2022-12-13T07:35:22;21.43;;;9.70;;
10701;SDS011;5402;50.004;8.246;2022-12-13T07:37:48;21.07;;;9.23;;
10701;SDS011;5402;50.004;8.246;2022-12-13T07:40:15;21.20;;;10.83;;
10701;SDS011;5402;50.004;8.246;2022-12-13T07:42:47;19.30;;;9.87;;
10701;SDS011;5402;50.004;8.246;2022-12-13T07:45:14;24.80;;;9.83;;
10701;SDS011;5402;50.004;8.246;2022-12-13T07:47:41;23.20;;;10.03;;
10701;SDS011;5402;50.004;8.246;2022-12-13T07:50:08;22.53;;;11.13;;
10701;SDS011;5402;50.004;8.246;2022-12-13T07:52:37;22.03;;;9.40;;
10701;SDS011;5402;50.004;8.246;2022-12-13T07:55:04;22.00;;;10.43;;
10701;SDS011;5402;50.004;8.246;2022-12-13T07:57:32;18.93;;;9.80;;
10701;SDS011;5402;50.004;8.246;2022-12-13T07:59:59;19.77;;;9.80;;
10701;SDS011;5402;50.004;8.246;2022-12-13T08:02:25;19.03;;;9.00;;
10701;SDS011;5402;50.004;8.246;2022-12-13T08:04:52;19.90;;;9.53;;
10701;SDS011;5402;50.004;8.246;2022-12-13T08:07:19;18.17;;;9.27;;
10701;SDS011;5402;50.004;8.246;2022-12-13T08:09:47;19.60;;;9.97;;
10701;SDS011;5402;50.004;8.246;2022-12-13T08:12:14;18.00;;;9.17;;
10701;SDS011;5402;50.004;8.246;2022-12-13T08:14:41;23.50;;;9.33;;
10701;SDS011;5402;50.004;8.246;2022-12-13T08:17:07;21.57;;;10.40;;
10701;SDS011;5402;50.004;8.246;2022-12-13T08:19:34;16.27;;;9.10;;
10701;SDS011;5402;50.004;8.246;2022-12-13T08:22:01;21.80;;;9.00;;
10701;SDS011;5402;50.004;8.246;2022-12-13T08:24:28;22.50;;;9.80;;
10701;SDS011;5402;50.004;8.246;2022-12-13T08:26:57;17.67;;;9.53;;
10701;SDS011;5402;50.004;8.246;2022-12-13T08:29:26;17.27;;;9.00;;
10701;SDS011;5402;50.004;8.246;2022-12-13T08:31:53;19.10;;;8.77;;
10701;SDS011;5402;50.004;8.246;2022-12-13T08:34:20;17.17;;;9.07;;
10701;SDS011;5402;50.004;8.246;2022-12-13T08:36:47;15.63;;;9.07;;
10701;SDS011;5402;50.004;8.246;2022-12-13T08:39:13;19.50;;;9.20;;
10701;SDS011;5402;50.004;8.246;2022-12-13T08:41:40;21.13;;;9.93;;
10701;SDS011;5402;50.004;8.246;2022-12-13T08:44:08;18.93;;;9.37;;
10701;SDS011;5402;50.004;8.246;2022-12-13T08:46:36;20.50;;;9.50;;
10701;SDS011;5402;50.004;8.246;2022-12-13T08:49:03;20.10;;;9.63;;
10701;SDS011;5402;50.004;8.246;2022-12-13T08:51:30;18.23;;;9.33;;
10701;SDS011;5402;50.004;8.246;2022-12-13T08:53:57;19.40;;;9.20;;
10701;SDS011;5402;50.004;8.246;2022-12-13T08:56:23;21.63;;;9.53;;
10701;SDS011;5402;50.004;8.246;2022-12-13T08:58:50;18.90;;;9.77;;
10701;SDS011;5402;50.004;8.246;2022-12-13T09:01:18;18.63;;;9.67;;
10701;SDS011;5402;50.004;8.246;2022-12-13T09:03:45;20.90;;;9.40;;
10701;SDS011;5402;50.004;8.246;2022-12-13T09:06:12;20.27;;;9.90;;
10701;SDS011;5402;50.004;8.246;2022-12-13T09:08:42;18.67;;;10.43;;
10701;SDS011;5402;50.004;8.246;2022-12-13T09:11:10;21.57;;;9.80;;
10701;SDS011;5402;50.004;8.246;2022-12-13T09:13:37;17.97;;;9.57;;
10701;SDS011;5402;50.004;8.246;2022-12-13T09:16:05;18.17;;;8.93;;
10701;SDS011;5402;50.004;8.246;2022-12-13T09:18:35;19.63;;;9.90;;
10701;SDS011;5402;50.004;8.246;2022-12-13T09:21:05;19.03;;;8.97;;
10701;SDS011;5402;50.004;8.246;2022-12-13T09:23:32;21.87;;;9.83;;
10701;SDS011;5402;50.004;8.246;2022-12-13T09:25:59;17.87;;;9.27;;
10701;SDS011;5402;50.004;8.246;2022-12-13T09:28:26;16.30;;;7.90;;
10701;SDS011;5402;50.004;8.246;2022-12-13T09:30:55;19.20;;;9.50;;
10701;SDS011;5402;50.004;8.246;2022-12-13T09:33:22;15.27;;;8.83;;
10701;SDS011;5402;50.004;8.246;2022-12-13T09:35:51;32.47;;;10.83;;
10701;SDS011;5402;50.004;8.246;2022-12-13T09:38:18;16.53;;;9.07;;
10701;SDS011;5402;50.004;8.246;2022-12-13T09:40:46;16.00;;;8.70;;
10701;SDS011;5402;50.004;8.246;2022-12-13T09:43:15;17.67;;;8.40;;
10701;SDS011;5402;50.004;8.246;2022-12-13T09:45:47;17.80;;;9.27;;
10701;SDS011;5402;50.004;8.246;2022-12-13T09:48:16;17.50;;;8.90;;
10701;SDS011;5402;50.004;8.246;2022-12-13T09:50:45;20.30;;;9.00;;
10701;SDS011;5402;50.004;8.246;2022-12-13T09:53:14;16.30;;;8.40;;
10701;SDS011;5402;50.004;8.246;2022-12-13T09:55:45;17.37;;;8.47;;
10701;SDS011;5402;50.004;8.246;2022-12-13T09:58:15;16.87;;;7.63;;
10701;SDS011;5402;50.004;8.246;2022-12-13T10:00:45;18.07;;;8.67;;
10701;SDS011;5402;50.004;8.246;2022-12-13T10:03:14;17.43;;;9.33;;
10701;SDS011;5402;50.004;8.246;2022-12-13T10:05:43;17.17;;;7.90;;
10701;SDS011;5402;50.004;8.246;2022-12-13T10:08:11;17.93;;;8.47;;
10701;SDS011;5402;50.004;8.246;2022-12-13T10:10:41;25.10;;;10.50;;
10701;SDS011;5402;50.004;8.246;2022-12-13T10:13:09;23.93;;;9.87;;
10701;SDS011;5402;50.004;8.246;2022-12-13T10:15:42;18.83;;;8.83;;
10701;SDS011;5402;50.004;8.246;2022-12-13T10:18:13;16.90;;;8.53;;
10701;SDS011;5402;50.004;8.246;2022-12-13T10:20:46;18.03;;;7.80;;
10701;SDS011;5402;50.004;8.246;2022-12-13T10:23:15;18.23;;;8.97;;
10701;SDS011;5402;50.004;8.246;2022-12-13T10:25:47;16.40;;;8.17;;
10701;SDS011;5402;50.004;8.246;2022-12-13T10:28:22;20.77;;;9.07;;
10701;SDS011;5402;50.004;8.246;2022-12-13T10:30:51;23.90;;;9.23;;
10701;SDS011;5402;50.004;8.246;2022-12-13T10:33:19;14.33;;;7.83;;
10701;SDS011;5402;50.004;8.246;2022-12-13T10:36:00;16.93;;;8.77;;
10701;SDS011;5402;50.004;8.246;2022-12-13T10:38:30;15.70;;;9.10;;
10701;SDS011;5402;50.004;8.246;2022-12-13T10:41:02;20.53;;;8.30;;
10701;SDS011;5402;50.004;8.246;2022-12-13T10:43:58;16.10;;;7.77;;
10701;SDS011;5402;50.004;8.246;2022-12-13T10:46:41;16.30;;;8.27;;
10701;SDS011;5402;50.004;8.246;2022-12-13T10:49:14;19.10;;;8.07;;
10701;SDS011;5402;50.004;8.246;2022-12-13T10:51:42;18.17;;;9.10;;
10701;SDS011;5402;50.004;8.246;2022-12-13T10:54:10;13.37;;;7.73;;
10701;SDS011;5402;50.004;8.246;2022-12-13T10:56:44;17.03;;;8.23;;
10701;SDS011;5402;50.004;8.246;2022-12-13T10:59:21;19.13;;;8.57;;
10701;SDS011;5402;50.004;8.246;2022-12-13T11:01:51;13.83;;;7.17;;
10701;SDS011;5402;50.004;8.246;2022-12-13T11:04:20;18.90;;;8.83;;
10701;SDS011;5402;50.004;8.246;2022-12-13T11:06:50;17.33;;;7.70;;
10701;SDS011;5402;50.004;8.246;2022-12-13T11:09:23;17.20;;;7.90;;
10701;SDS011;5402;50.004;8.246;2022-12-13T11:11:52;18.83;;;8.73;;
10701;SDS011;5402;50.004;8.246;2022-12-13T11:14:22;16.33;;;8.63;;
10701;SDS011;5402;50.004;8.246;2022-12-13T11:16:51;14.30;;;7.83;;
10701;SDS011;5402;50.004;8.246;2022-12-13T11:19:23;15.40;;;7.77;;
10701;SDS011;5402;50.004;8.246;2022-12-13T11:21:54;14.50;;;7.83;;
10701;SDS011;5402;50.004;8.246;2022-12-13T11:24:23;15.43;;;7.90;;
10701;SDS011;5402;50.004;8.246;2022-12-13T11:26:55;18.90;;;8.57;;
10701;SDS011;5402;50.004;8.246;2022-12-13T11:29:32;20.30;;;8.43;;
10701;SDS011;5402;50.004;8.246;2022-12-13T11:32:17;15.67;;;8.00;;
10701;SDS011;5402;50.004;8.246;2022-12-13T11:34:55;15.70;;;7.50;;
10701;SDS011;5402;50.004;8.246;2022-12-13T11:37:31;15.37;;;7.80;;
10701;SDS011;5402;50.004;8.246;2022-12-13T11:40:03;12.17;;;6.97;;
10701;SDS011;5402;50.004;8.246;2022-12-13T11:42:38;15.90;;;7.27;;
10701;SDS011;5402;50.004;8.246;2022-12-13T11:45:10;11.93;;;6.70;;
10701;SDS011;5402;50.004;8.246;2022-12-13T11:47:42;17.40;;;7.50;;
10701;SDS011;5402;50.004;8.246;2022-12-13T11:50:15;13.63;;;7.73;;
10701;SDS011;5402;50.004;8.246;2022-12-13T11:52:45;13.53;;;7.37;;
10701;SDS011;5402;50.004;8.246;2022-12-13T11:55:17;19.63;;;9.17;;
10701;SDS011;5402;50.004;8.246;2022-12-13T11:57:54;13.37;;;7.33;;
10701;SDS011;5402;50.004;8.246;2022-12-13T12:00:29;17.07;;;8.37;;
10701;SDS011;5402;50.004;8.246;2022-12-13T12:03:00;16.53;;;8.67;;
10701;SDS011;5402;50.004;8.246;2022-12-13T12:05:37;17.43;;;8.90;;
10701;SDS011;5402;50.004;8.246;2022-12-13T12:08:10;16.00;;;8.30;;
10701;SDS011;5402;50.004;8.246;2022-12-13T12:10:44;14.90;;;7.67;;
10701;SDS011;5402;50.004;8.246;2022-12-13T12:13:15;16.67;;;8.30;;
10701;SDS011;5402;50.004;8.246;2022-12-13T12:15:45;14.57;;;7.30;;
10701;SDS011;5402;50.004;8.246;2022-12-13T12:18:18;12.97;;;7.07;;
10701;SDS011;5402;50.004;8.246;2022-12-13T12:20:48;14.60;;;7.33;;
10701;SDS011;5402;50.004;8.246;2022-12-13T12:23:32;16.50;;;8.47;;
10701;SDS011;5402;50.004;8.246;2022-12-13T12:26:12;19.00;;;9.67;;
10701;SDS011;5402;50.004;8.246;2022-12-13T12:28:49;15.07;;;7.33;;
10701;SDS011;5402;50.004;8.246;2022-12-13T12:31:28;16.13;;;8.67;;
10701;SDS011;5402;50.004;8.246;2022-12-13T12:33:59;18.03;;;7.80;;
10701;SDS011;5402;50.004;8.246;2022-12-13T12:36:34;19.60;;;8.03;;
10701;SDS011;5402;50.004;8.246;2022-12-13T12:39:12;15.60;;;7.87;;
10701;SDS011;5402;50.004;8.246;2022-12-13T12:41:53;16.40;;;8.23;;
10701;SDS011;5402;50.004;8.246;2022-12-13T12:44:32;16.40;;;8.07;;
10701;SDS011;5402;50.004;8.246;2022-12-13T12:47:15;17.33;;;9.57;;
10701;SDS011;5402;50.004;8.246;2022-12-13T12:50:07;15.63;;;7.33;;
10701;SDS011;5402;50.004;8.246;2022-12-13T12:52:52;18.17;;;8.50;;
10701;SDS011;5402;50.004;8.246;2022-12-13T12:55:29;15.00;;;7.83;;
10701;SDS011;5402;50.004;8.246;2022-12-13T12:58:05;14.97;;;7.13;;
10701;SDS011;5402;50.004;8.246;2022-12-13T13:00:41;16.87;;;9.30;;
10701;SDS011;5402;50.004;8.246;2022-12-13T13:03:14;17.63;;;9.03;;
10701;SDS011;5402;50.004;8.246;2022-12-13T13:05:45;17.50;;;7.40;;
10701;SDS011;5402;50.004;8.246;2022-12-13T13:08:18;15.40;;;7.53;;
10701;SDS011;5402;50.004;8.246;2022-12-13T13:10:47;14.20;;;7.60;;
10701;SDS011;5402;50.004;8.246;2022-12-13T13:13:38;13.80;;;8.07;;
10701;SDS011;5402;50.004;8.246;2022-12-13T13:19:01;15.00;;;7.07;;
10701;SDS011;5402;50.004;8.246;2022-12-13T13:21:42;15.40;;;7.10;;
10701;SDS011;5402;50.004;8.246;2022-12-13T13:24:12;15.27;;;8.07;;
10701;SDS011;5402;50.004;8.246;2022-12-13T13:26:42;12.23;;;7.27;;
10701;SDS011;5402;50.004;8.246;2022-12-13T13:31:58;15.20;;;8.37;;
10701;SDS011;5402;50.004;8.246;2022-12-13T13:34:27;14.20;;;6.87;;
10701;SDS011;5402;50.004;8.246;2022-12-13T13:36:55;16.47;;;7.70;;
10701;SDS011;5402;50.004;8.246;2022-12-13T13:39:36;13.13;;;7.27;;
10701;SDS011;5402;50.004;8.246;2022-12-13T13:42:24;12.27;;;6.50;;
10701;SDS011;5402;50.004;8.246;2022-12-13T13:47:48;14.73;;;7.43;;
10701;SDS011;5402;50.004;8.246;2022-12-13T13:50:43;15.80;;;8.00;;
10701;SDS011;5402;50.004;8.246;2022-12-13T13:53:44;15.73;;;8.43;;
10701;SDS011;5402;50.004;8.246;2022-12-13T13:56:34;18.77;;;8.77;;
10701;SDS011;5402;50.004;8.246;2022-12-13T13:59:19;15.87;;;7.60;;
10701;SDS011;5402;50.004;8.246;2022-12-13T14:08:50;14.13;;;7.50;;
10701;SDS011;5402;50.004;8.246;2022-12-13T14:11:48;14.40;;;8.07;;
10701;SDS011;5402;50.004;8.246;2022-12-13T14:18:09;15.33;;;7.30;;
10701;SDS011;5402;50.004;8.246;2022-12-13T14:21:11;11.80;;;7.07;;
10701;SDS011;5402;50.004;8.246;2022-12-13T14:23:47;13.33;;;7.37;;
10701;SDS011;5402;50.004;8.246;2022-12-13T14:26:32;15.60;;;7.80;;
10701;SDS011;5402;50.004;8.246;2022-12-13T14:29:09;16.67;;;7.90;;
10701;SDS011;5402;50.004;8.246;2022-12-13T14:31:39;15.40;;;8.27;;
10701;SDS011;5402;50.004;8.246;2022-12-13T14:34:14;17.87;;;8.30;;
10701;SDS011;5402;50.004;8.246;2022-12-13T14:36:48;14.47;;;7.47;;
10701;SDS011;5402;50.004;8.246;2022-12-13T14:39:22;17.00;;;8.17;;
10701;SDS011;5402;50.004;8.246;2022-12-13T14:41:50;16.20;;;7.80;;
10701;SDS011;5402;50.004;8.246;2022-12-13T14:44:20;17.37;;;8.30;;
10701;SDS011;5402;50.004;8.246;2022-12-13T14:46:49;15.73;;;7.80;;
10701;SDS011;5402;50.004;8.246;2022-12-13T14:49:17;15.33;;;8.43;;
10701;SDS011;5402;50.004;8.246;2022-12-13T14:51:44;16.23;;;8.50;;
10701;SDS011;5402;50.004;8.246;2022-12-13T14:54:16;16.40;;;8.87;;
10701;SDS011;5402;50.004;8.246;2022-12-13T14:56:57;17.43;;;9.20;;
10701;SDS011;5402;50.004;8.246;2022-12-13T14:59:25;17.10;;;8.30;;
10701;SDS011;5402;50.004;8.246;2022-12-13T15:01:53;23.67;;;11.17;;
10701;SDS011;5402;50.004;8.246;2022-12-13T15:04:24;23.23;;;10.90;;
10701;SDS011;5402;50.004;8.246;2022-12-13T15:06:54;19.30;;;10.90;;
10701;SDS011;5402;50.004;8.246;2022-12-13T15:09:33;16.27;;;8.87;;
10701;SDS011;5402;50.004;8.246;2022-12-13T15:12:10;19.27;;;9.47;;
10701;SDS011;5402;50.004;8.246;2022-12-13T15:14:40;16.00;;;8.53;;
10701;SDS011;5402;50.004;8.246;2022-12-13T15:17:19;17.30;;;9.80;;
10701;SDS011;5402;50.004;8.246;2022-12-13T15:19:51;17.10;;;8.77;;
10701;SDS011;5402;50.004;8.246;2022-12-13T15:22:18;17.93;;;9.70;;